Time;durP1;ratioP1;P1;durP2;ratioP2;P2;SDS_P1;SDS_P2;PMS_P1;PMS_P2;Temp;Humidity;BMP_temperature;BMP_pressure;BME280_temperature;BME280_humidity;BME280_pressure;Samples;Min_cycle;Max_cycle;Signal;HPM_P1;HPM_P2
2021/12/28 00:00:11;;;;;;;21.58;9.20;;;;;;;6.34;100.00;99436.69;4978022;28;20054;-68
2021/12/28 00:02:36;;;;;;;23.30;9.68;;;;;;;6.32;99.48;99431.69;4974466;28;20026;-67
2021/12/28 00:05:02;;;;;;;21.70;8.70;;;;;;;6.29;99.81;99437.06;4975063;28;20042;-67
2021/12/28 00:07:28;;;;;;;21.10;9.00;;;;;;;6.26;99.96;99434.78;4995790;28;20497;-67
2021/12/28 00:09:53;;;;;;;22.17;9.60;;;;;;;6.24;99.70;99438.41;5001272;28;20022;-67
2021/12/28 00:12:18;;;;;;;21.58;9.27;;;;;;;6.21;99.75;99439.50;5003353;28;20108;-67
2021/12/28 00:15:01;;;;;;;27.70;10.57;;;;;;;6.22;99.57;99435.97;5007747;28;20022;-67
2021/12/28 00:20:10;;;;;;;19.67;8.65;;;;;;;6.13;99.73;99440.13;5019774;28;20048;-67
2021/12/28 00:22:35;;;;;;;21.88;9.05;;;;;;;6.13;99.35;99434.19;5012210;28;20027;-67
2021/12/28 00:25:01;;;;;;;22.30;8.65;;;;;;;6.10;99.79;99426.72;5024454;28;20425;-67
2021/12/28 00:27:26;;;;;;;19.52;8.23;;;;;;;6.11;99.77;99438.66;5018153;28;20453;-67
2021/12/28 00:29:51;;;;;;;21.00;8.63;;;;;;;6.09;99.68;99422.53;5013859;28;20093;-67
2021/12/28 00:32:17;;;;;;;19.50;9.27;;;;;;;6.07;99.31;99437.28;5020848;28;20036;-68
2021/12/28 00:34:42;;;;;;;20.48;7.97;;;;;;;6.04;99.90;99432.41;5013600;28;20101;-67
2021/12/28 00:37:07;;;;;;;25.73;8.77;;;;;;;5.99;99.19;99424.25;5032072;28;20148;-67
2021/12/28 00:39:33;;;;;;;23.77;8.60;;;;;;;6.02;99.51;99408.53;5029381;28;20108;-70
2021/12/28 00:41:58;;;;;;;24.90;9.05;;;;;;;6.02;99.47;99424.81;5029448;28;20100;-67
2021/12/28 00:44:24;;;;;;;22.63;8.15;;;;;;;5.99;99.55;99408.81;4996168;28;20018;-67
2021/12/28 00:46:50;;;;;;;25.00;8.43;;;;;;;5.99;99.11;99403.66;5018712;28;20057;-68
2021/12/28 00:49:15;;;;;;;21.75;7.90;;;;;;;5.91;99.58;99406.03;5019899;28;20433;-67
2021/12/28 00:51:41;;;;;;;21.98;8.35;;;;;;;5.98;99.72;99407.19;5013834;28;20029;-67
2021/12/28 00:54:06;;;;;;;22.60;7.68;;;;;;;5.94;99.09;99400.66;5033353;28;20029;-67
2021/12/28 00:56:31;;;;;;;26.40;8.50;;;;;;;5.94;99.93;99395.53;5033295;28;20068;-67
2021/12/28 00:58:57;;;;;;;19.45;7.65;;;;;;;5.84;99.34;99401.41;5019355;28;20026;-67
2021/12/28 01:01:22;;;;;;;27.40;8.27;;;;;;;5.93;99.09;99404.19;5030061;28;20032;-67
2021/12/28 01:03:47;;;;;;;25.58;8.65;;;;;;;5.91;99.25;99403.47;5020653;28;20022;-67
2021/12/28 01:06:13;;;;;;;24.95;8.55;;;;;;;5.91;99.36;99398.31;5010740;28;20153;-67
2021/12/28 01:08:38;;;;;;;24.05;8.30;;;;;;;5.91;99.49;99395.75;5003210;28;20053;-67
2021/12/28 01:11:05;;;;;;;25.17;8.18;;;;;;;5.90;99.57;99388.97;5003355;28;20033;-67
2021/12/28 01:13:31;;;;;;;26.05;8.50;;;;;;;5.94;100.00;99400.66;5012848;28;20052;-67
2021/12/28 01:15:56;;;;;;;25.08;8.38;;;;;;;5.93;99.40;99389.56;5007174;28;20045;-67
2021/12/28 01:18:22;;;;;;;23.35;8.38;;;;;;;5.94;100.00;99396.34;4999483;28;20382;-67
2021/12/28 01:20:47;;;;;;;28.38;8.50;;;;;;;5.95;99.64;99387.66;4998455;28;20100;-67
2021/12/28 01:23:13;;;;;;;25.13;8.30;;;;;;;5.95;100.00;99389.41;4982510;28;20399;-67
2021/12/28 01:25:38;;;;;;;22.42;8.48;;;;;;;5.95;99.75;99392.00;4998131;28;20094;-67
2021/12/28 01:28:05;;;;;;;25.60;8.27;;;;;;;5.90;100.00;99384.63;5013207;28;20351;-67
2021/12/28 01:30:30;;;;;;;25.30;8.63;;;;;;;5.91;100.00;99383.75;5002524;28;20041;-67
2021/12/28 01:33:01;;;;;;;23.85;8.32;;;;;;;5.90;99.88;99388.97;5012406;28;20331;-67
2021/12/28 01:35:28;;;;;;;25.35;8.80;;;;;;;5.90;100.00;99391.53;4985901;28;20100;-67
2021/12/28 01:37:54;;;;;;;32.92;9.77;;;;;;;5.86;99.88;99384.09;5003528;28;20040;-67
2021/12/28 01:40:23;;;;;;;27.38;8.40;;;;;;;5.85;99.25;99384.22;5010275;28;20038;-67
2021/12/28 01:43:11;;;;;;;26.67;8.45;;;;;;;5.85;99.82;99382.47;4992188;28;20030;-68
2021/12/28 01:45:38;;;;;;;25.63;8.32;;;;;;;5.85;99.48;99379.09;4985494;28;20022;-68
2021/12/28 01:48:06;;;;;;;22.90;8.00;;;;;;;5.78;99.12;99386.50;4987848;28;20038;-67
2021/12/28 01:50:31;;;;;;;23.73;8.48;;;;;;;5.80;99.74;99378.66;4986954;28;20367;-67
2021/12/28 01:52:57;;;;;;;24.42;8.73;;;;;;;5.74;99.60;99385.13;5005644;28;20033;-67
2021/12/28 01:55:22;;;;;;;23.85;8.20;;;;;;;5.75;99.92;99381.63;4976057;28;20026;-67
2021/12/28 01:57:48;;;;;;;24.13;8.10;;;;;;;5.68;99.13;99377.94;5005916;28;20484;-67
2021/12/28 02:00:14;;;;;;;23.40;8.30;;;;;;;5.72;99.37;99381.06;4994870;28;20410;-67
2021/12/28 02:02:40;;;;;;;27.45;8.25;;;;;;;5.68;99.19;99374.53;4987795;28;20033;-67
2021/12/28 02:05:05;;;;;;;25.17;8.02;;;;;;;5.69;99.97;99381.31;4995992;28;20038;-67
2021/12/28 02:07:31;;;;;;;21.88;8.32;;;;;;;5.66;99.51;99377.25;5009315;28;20060;-68
2021/12/28 02:09:56;;;;;;;25.40;8.15;;;;;;;5.63;99.15;99377.50;5028953;28;20049;-67
2021/12/28 02:12:22;;;;;;;27.63;8.60;;;;;;;5.63;99.46;99382.66;5011846;28;20033;-67
2021/12/28 02:14:47;;;;;;;26.38;7.85;;;;;;;5.62;99.74;99370.75;5018207;28;20385;-67
2021/12/28 02:17:14;;;;;;;23.90;7.80;;;;;;;5.61;99.16;99363.94;5012777;28;20454;-67
2021/12/28 02:19:41;;;;;;;25.30;7.50;;;;;;;5.62;99.60;99364.75;5030611;28;20533;-67
2021/12/28 02:22:07;;;;;;;28.23;8.15;;;;;;;5.62;99.39;99365.59;5011749;28;20026;-67
2021/12/28 02:24:33;;;;;;;27.88;8.15;;;;;;;5.59;99.42;99371.81;5019777;28;20078;-67
2021/12/28 02:26:58;;;;;;;22.48;7.28;;;;;;;5.62;99.84;99375.88;5027148;28;20354;-67
2021/12/28 02:29:24;;;;;;;24.55;7.40;;;;;;;5.62;100.00;99378.47;5031933;28;20018;-67
2021/12/28 02:31:55;;;;;;;25.60;8.20;;;;;;;5.63;99.52;99372.38;5016485;28;20069;-67
2021/12/28 02:34:24;;;;;;;30.30;8.02;;;;;;;5.64;99.55;99368.03;5024112;28;20030;-67
2021/12/28 02:36:49;;;;;;;27.38;8.00;;;;;;;5.64;99.75;99368.84;4993874;28;20030;-67
2021/12/28 02:39:15;;;;;;;28.42;7.97;;;;;;;5.65;100.00;99355.03;5020301;28;20040;-67
2021/12/28 02:41:40;;;;;;;34.33;8.80;;;;;;;5.63;100.00;99359.50;4995306;28;20026;-67
2021/12/28 02:44:06;;;;;;;28.08;8.52;;;;;;;5.65;99.86;99360.19;4993826;28;20072;-67
2021/12/28 02:46:31;;;;;;;28.42;8.50;;;;;;;5.65;100.00;99349.91;5018231;28;20053;-67
2021/12/28 02:48:57;;;;;;;27.58;8.30;;;;;;;5.69;99.79;99351.28;5019973;28;20025;-67
2021/12/28 02:51:22;;;;;;;27.88;8.32;;;;;;;5.68;100.00;99339.34;5024138;28;20029;-67
2021/12/28 02:53:48;;;;;;;23.70;8.38;;;;;;;5.70;100.00;99334.88;5011347;28;20075;-68
2021/12/28 02:56:15;;;;;;;26.65;8.43;;;;;;;5.71;100.00;99328.78;5025753;28;20029;-66
2021/12/28 02:58:44;;;;;;;29.67;8.43;;;;;;;5.73;100.00;99331.22;5011489;28;20042;-67
2021/12/28 03:01:13;;;;;;;;;;;;;;;5.82;100.00;99333.84;5023136;28;20045;-67
2021/12/28 03:03:40;;;;;;;31.88;8.10;;;;;;;5.77;99.68;99328.28;4993588;28;19917;-67
2021/12/28 03:06:08;;;;;;;29.60;8.43;;;;;;;5.78;100.00;99329.88;5013748;28;20390;-67
2021/12/28 03:08:43;;;;;;;28.05;8.27;;;;;;;5.78;99.80;99329.88;5024088;28;20023;-67
2021/12/28 03:11:09;;;;;;;31.10;8.70;;;;;;;5.81;100.00;99328.84;4993188;28;20405;-67
2021/12/28 03:13:50;;;;;;;31.00;9.20;;;;;;;5.79;100.00;99321.25;5010816;28;20032;-67
2021/12/28 03:16:18;;;;;;;29.40;8.00;;;;;;;5.82;100.00;99326.13;5024588;28;20038;-67
2021/12/28 03:18:45;;;;;;;28.60;8.02;;;;;;;5.82;100.00;99320.97;5011499;28;20026;-67
2021/12/28 03:21:12;;;;;;;34.85;8.45;;;;;;;5.83;100.00;99312.31;4994185;28;20041;-66
2021/12/28 03:23:39;;;;;;;29.50;7.90;;;;;;;5.83;100.00;99304.59;5010414;28;20378;-67
2021/12/28 03:26:07;;;;;;;31.35;8.38;;;;;;;5.89;100.00;99315.28;5017371;28;20107;-67
2021/12/28 03:28:34;;;;;;;31.02;8.48;;;;;;;5.89;100.00;99310.16;4993589;28;20034;-67
2021/12/28 03:31:01;;;;;;;33.25;8.27;;;;;;;5.90;100.00;99309.19;5028436;28;20037;-67
2021/12/28 03:33:29;;;;;;;27.55;8.00;;;;;;;5.88;100.00;99308.53;5011385;28;20100;-67
2021/12/28 03:35:55;;;;;;;29.30;7.93;;;;;;;5.92;100.00;99304.78;5029948;28;20032;-67
2021/12/28 03:38:20;;;;;;;31.67;7.88;;;;;;;5.84;100.00;99298.50;5019171;28;20034;-68
2021/12/28 03:40:47;;;;;;;31.17;7.57;;;;;;;5.90;100.00;99291.19;5001534;28;20610;-67
2021/12/28 03:43:12;;;;;;;30.80;7.75;;;;;;;5.93;100.00;99296.13;5002498;28;20026;-67
2021/12/28 03:45:38;;;;;;;28.00;7.38;;;;;;;5.89;100.00;99290.38;5007292;28;20096;-67
2021/12/28 03:48:04;;;;;;;32.35;7.75;;;;;;;5.93;100.00;99286.63;5010686;28;20540;-67
2021/12/28 03:50:31;;;;;;;27.88;6.82;;;;;;;5.92;100.00;99279.06;5018299;28;20029;-66
2021/12/28 03:52:57;;;;;;;27.60;7.50;;;;;;;5.96;100.00;99276.06;5013278;28;20091;-67
2021/12/28 03:55:25;;;;;;;29.35;8.00;;;;;;;5.99;100.00;99280.13;5022000;28;20462;-67
2021/12/28 03:57:51;;;;;;;33.90;8.00;;;;;;;5.99;100.00;99277.56;5009643;28;20477;-67
2021/12/28 04:00:19;;;;;;;29.27;7.15;;;;;;;6.02;100.00;99279.84;5018350;28;20119;-67
2021/12/28 04:02:45;;;;;;;33.03;8.10;;;;;;;6.02;100.00;99270.41;5012946;28;20026;-67
2021/12/28 04:05:11;;;;;;;27.52;7.15;;;;;;;6.04;100.00;99283.13;5010887;28;20076;-67
2021/12/28 04:07:37;;;;;;;30.08;7.30;;;;;;;6.02;100.00;99275.56;5010280;28;20447;-67
2021/12/28 04:10:04;;;;;;;28.02;6.97;;;;;;;6.09;100.00;99288.69;4992735;28;20034;-66
2021/12/28 04:12:31;;;;;;;28.02;7.40;;;;;;;6.10;100.00;99282.59;5010355;28;20428;-66
2021/12/28 04:14:57;;;;;;;30.48;7.35;;;;;;;6.10;100.00;99274.88;5010743;28;20041;-67
2021/12/28 04:17:26;;;;;;;25.83;6.45;;;;;;;6.10;100.00;99282.59;5010422;28;20385;-67
2021/12/28 04:19:51;;;;;;;32.35;7.25;;;;;;;6.14;100.00;99276.25;5010706;28;20025;-67
2021/12/28 04:22:17;;;;;;;30.80;7.03;;;;;;;6.15;100.00;99271.91;5009914;28;20034;-67
2021/12/28 04:24:42;;;;;;;37.00;7.20;;;;;;;6.16;100.00;99274.31;5010504;28;20033;-67
2021/12/28 04:27:08;;;;;;;30.23;7.72;;;;;;;6.19;100.00;99276.63;5010527;28;20036;-67
2021/12/28 04:29:33;;;;;;;28.00;6.93;;;;;;;6.21;100.00;99269.59;5009978;28;20025;-67
2021/12/28 04:31:59;;;;;;;31.83;7.75;;;;;;;6.23;100.00;99272.03;5009986;28;20029;-67
2021/12/28 04:34:24;;;;;;;32.92;7.47;;;;;;;6.23;100.00;99277.16;4992632;28;20345;-67
2021/12/28 04:36:50;;;;;;;30.50;6.80;;;;;;;6.25;100.00;99278.69;5010372;28;20147;-67
2021/12/28 04:39:16;;;;;;;29.80;8.32;;;;;;;6.29;100.00;99277.44;5010173;28;20034;-67
2021/12/28 04:41:42;;;;;;;32.28;7.32;;;;;;;6.29;100.00;99277.44;5009927;28;20365;-67
2021/12/28 04:44:11;;;;;;;27.20;6.97;;;;;;;6.29;100.00;99271.47;5010396;28;20065;-68
2021/12/28 04:46:36;;;;;;;32.53;6.95;;;;;;;6.33;100.00;99272.84;5009943;28;20025;-67
2021/12/28 04:49:03;;;;;;;31.60;6.57;;;;;;;6.32;100.00;99282.34;5010428;28;20028;-67
2021/12/28 04:51:29;;;;;;;32.78;6.80;;;;;;;6.34;100.00;99284.75;5010443;28;20021;-67
2021/12/28 04:53:55;;;;;;;30.98;6.70;;;;;;;6.34;100.00;99277.84;5010823;28;20084;-67
2021/12/28 04:56:21;;;;;;;26.30;6.28;;;;;;;6.38;100.00;99281.78;5013183;28;20481;-67
2021/12/28 04:58:47;;;;;;;26.17;5.93;;;;;;;6.41;100.00;99269.56;5013422;28;20447;-67
2021/12/28 05:01:13;;;;;;;28.48;6.50;;;;;;;6.43;100.00;99275.41;4995862;28;20557;-67
2021/12/28 05:03:38;;;;;;;25.70;5.75;;;;;;;6.43;100.00;99278.00;5013534;28;20036;-67
2021/12/28 05:06:04;;;;;;;27.65;6.72;;;;;;;6.45;100.00;99265.78;5011343;28;20053;-67
2021/12/28 05:08:30;;;;;;;24.40;6.13;;;;;;;6.47;100.00;99263.88;4993883;28;20038;-67
2021/12/28 05:10:55;;;;;;;25.67;6.20;;;;;;;6.50;100.00;99263.63;4993945;28;20077;-67
2021/12/28 05:13:22;;;;;;;20.95;5.65;;;;;;;6.50;100.00;99259.28;4999316;28;20094;-67
2021/12/28 05:15:49;;;;;;;24.35;6.03;;;;;;;6.50;100.00;99255.88;4996935;28;20041;-67
2021/12/28 05:18:14;;;;;;;25.50;5.82;;;;;;;6.52;100.00;99256.56;4993829;28;20478;-67
2021/12/28 05:20:41;;;;;;;24.52;5.43;;;;;;;6.54;100.00;99254.66;4993942;28;20037;-67
2021/12/28 05:23:07;;;;;;;23.50;5.32;;;;;;;6.57;100.00;99244.06;5000601;28;20026;-67
2021/12/28 05:25:33;;;;;;;27.50;6.93;;;;;;;6.63;100.00;99243.53;4998614;28;20069;-67
2021/12/28 05:28:00;;;;;;;23.48;5.65;;;;;;;6.57;100.00;99242.31;4976035;28;20026;-67
2021/12/28 05:30:25;;;;;;;26.55;5.50;;;;;;;6.61;100.00;99245.44;5001563;28;20046;-67
2021/12/28 05:32:51;;;;;;;25.55;5.32;;;;;;;6.62;100.00;99240.13;4975955;28;20117;-67
2021/12/28 05:35:16;;;;;;;21.75;5.75;;;;;;;6.62;100.00;99227.25;4993960;28;20038;-67
2021/12/28 05:37:42;;;;;;;23.08;4.90;;;;;;;6.67;100.00;99234.56;4975815;28;20098;-67
2021/12/28 05:40:10;;;;;;;23.83;5.15;;;;;;;6.68;100.00;99236.19;4981049;28;20033;-67
2021/12/28 05:42:36;;;;;;;25.25;5.15;;;;;;;6.69;100.00;99232.66;5004177;28;20450;-67
2021/12/28 05:45:02;;;;;;;19.70;4.95;;;;;;;6.72;100.00;99227.25;4993400;28;20054;-67
2021/12/28 05:47:27;;;;;;;22.38;4.60;;;;;;;6.71;100.00;99223.03;4992998;28;20041;-67
2021/12/28 05:49:52;;;;;;;25.30;6.60;;;;;;;6.73;100.00;99223.72;4994227;28;20026;-67
2021/12/28 05:52:18;;;;;;;19.70;5.38;;;;;;;6.75;100.00;99216.63;4975814;28;20069;-67
2021/12/28 05:54:43;;;;;;;20.63;4.72;;;;;;;6.78;100.00;99224.09;4993022;28;20034;-67
2021/12/28 05:57:09;;;;;;;22.38;4.32;;;;;;;6.79;100.00;99218.00;4975789;28;20026;-68
2021/12/28 05:59:35;;;;;;;25.67;4.90;;;;;;;6.83;100.00;99214.19;5003232;28;20053;-67
2021/12/28 06:02:00;;;;;;;19.33;4.18;;;;;;;6.82;100.00;99215.13;4975848;28;20057;-67
2021/12/28 06:04:25;;;;;;;17.77;4.35;;;;;;;6.83;100.00;99214.19;4975573;28;20113;-68
2021/12/28 06:06:51;;;;;;;20.45;4.90;;;;;;;6.83;100.00;99205.66;5003186;28;20086;-67
2021/12/28 06:09:16;;;;;;;22.58;4.53;;;;;;;6.86;100.00;99208.75;5000248;28;20493;-67
2021/12/28 06:11:41;;;;;;;19.92;4.53;;;;;;;6.88;100.00;99212.00;4975992;28;20037;-67
2021/12/28 06:14:07;;;;;;;20.52;4.65;;;;;;;6.86;100.00;99208.75;4975034;28;20049;-67
2021/12/28 06:16:34;;;;;;;16.80;3.63;;;;;;;6.86;100.00;99207.94;4992777;28;20073;-67
2021/12/28 06:19:00;;;;;;;16.92;4.28;;;;;;;6.89;100.00;99213.63;4997172;28;20403;-67
2021/12/28 06:21:26;;;;;;;18.92;3.90;;;;;;;6.88;100.00;99196.53;4992831;28;20096;-67
2021/12/28 06:23:51;;;;;;;18.70;4.55;;;;;;;6.95;100.00;99206.28;4992362;28;20030;-67
2021/12/28 06:26:16;;;;;;;19.13;3.90;;;;;;;6.91;100.00;99201.41;4999707;28;20475;-69
2021/12/28 06:28:42;;;;;;;14.05;4.38;;;;;;;6.96;100.00;99197.59;4996133;28;20092;-67
2021/12/28 06:31:07;;;;;;;19.67;4.43;;;;;;;6.98;100.00;99193.09;4992702;28;20030;-67
2021/12/28 06:33:32;;;;;;;15.35;3.30;;;;;;;6.95;100.00;99185.66;4985579;28;20045;-67
2021/12/28 06:35:58;;;;;;;15.35;3.60;;;;;;;6.98;100.00;99178.44;4999942;28;20030;-67
2021/12/28 06:38:23;;;;;;;13.02;3.25;;;;;;;7.00;100.00;99178.31;4996773;28;20112;-67
2021/12/28 06:40:49;;;;;;;15.50;3.28;;;;;;;7.02;100.00;99181.56;4992181;28;20034;-67
2021/12/28 06:43:14;;;;;;;14.25;3.08;;;;;;;7.02;100.00;99176.41;4993102;28;20030;-67
2021/12/28 06:45:40;;;;;;;14.40;3.10;;;;;;;7.02;100.00;99174.63;4994194;28;20097;-67
2021/12/28 06:48:06;;;;;;;11.35;3.00;;;;;;;7.04;100.00;99179.63;4991945;28;20066;-67
2021/12/28 06:50:32;;;;;;;15.20;2.95;;;;;;;7.05;100.00;99176.09;5003013;28;20034;-67
2021/12/28 06:52:57;;;;;;;14.40;3.47;;;;;;;7.04;100.00;99177.06;4991964;28;20542;-69
2021/12/28 06:55:22;;;;;;;13.93;3.30;;;;;;;7.03;100.00;99183.19;4981238;28;20021;-69
2021/12/28 06:57:48;;;;;;;13.48;3.35;;;;;;;7.06;100.00;99182.91;4998688;28;20034;-67
2021/12/28 07:00:17;;;;;;;13.73;3.13;;;;;;;7.05;100.00;99178.69;4991833;28;20042;-67
2021/12/28 07:02:43;;;;;;;15.63;3.72;;;;;;;7.07;100.00;99169.06;4992406;28;20109;-72
2021/12/28 07:05:09;;;;;;;13.98;3.67;;;;;;;7.07;100.00;99169.06;4992156;28;20109;-75
2021/12/28 07:07:35;;;;;;;12.77;3.70;;;;;;;7.05;100.00;99168.38;5007726;28;20504;-71
2021/12/28 07:10:00;;;;;;;13.30;3.20;;;;;;;7.09;100.00;99167.94;5011021;28;20097;-67
2021/12/28 07:12:26;;;;;;;15.40;3.33;;;;;;;7.03;100.00;99153.06;5011123;28;20029;-67
2021/12/28 07:14:53;;;;;;;13.77;3.30;;;;;;;7.08;100.00;99170.69;5011114;28;20030;-67
2021/12/28 07:17:18;;;;;;;16.50;3.35;;;;;;;7.07;100.00;99163.91;5010701;28;20109;-67
2021/12/28 07:19:43;;;;;;;11.45;2.65;;;;;;;7.10;100.00;99169.56;4992407;28;20504;-67
2021/12/28 07:22:09;;;;;;;12.57;3.28;;;;;;;7.08;100.00;99160.38;4981521;28;20121;-67
2021/12/28 07:24:34;;;;;;;13.48;3.50;;;;;;;7.08;100.00;99163.75;5000891;28;20104;-67
2021/12/28 07:26:59;;;;;;;14.07;2.95;;;;;;;7.12;100.00;99166.88;5003979;28;20053;-67
2021/12/28 07:29:25;;;;;;;11.13;2.67;;;;;;;7.12;100.00;99177.19;5004889;28;20112;-67
2021/12/28 07:31:50;;;;;;;11.55;2.63;;;;;;;7.12;100.00;99182.34;5002051;28;20031;-67
2021/12/28 07:34:17;;;;;;;10.48;3.20;;;;;;;7.15;100.00;99176.88;5010016;28;20033;-67
2021/12/28 07:36:42;;;;;;;11.70;3.00;;;;;;;7.18;100.00;99174.03;5005142;28;20109;-67
2021/12/28 07:39:08;;;;;;;9.52;2.65;;;;;;;7.16;100.00;99163.81;4995046;28;20486;-67
2021/12/28 07:41:33;;;;;;;11.20;2.80;;;;;;;7.19;100.00;99158.41;5004185;28;20026;-67
2021/12/28 07:43:59;;;;;;;10.35;2.95;;;;;;;7.21;100.00;99160.81;5005099;28;20033;-67
2021/12/28 07:46:24;;;;;;;12.02;4.00;;;;;;;7.22;100.00;99167.59;5010513;28;20108;-67
2021/12/28 07:48:50;;;;;;;10.00;2.92;;;;;;;7.24;100.00;99163.13;5002170;28;20058;-67
2021/12/28 07:51:15;;;;;;;12.55;2.92;;;;;;;7.26;100.00;99163.78;4992263;28;20030;-67
2021/12/28 07:53:41;;;;;;;12.18;2.88;;;;;;;7.27;100.00;99159.44;5001667;28;20359;-66
2021/12/28 07:56:06;;;;;;;11.50;2.75;;;;;;;7.31;100.00;99161.59;4975538;28;20026;-66
2021/12/28 07:58:31;;;;;;;12.27;3.13;;;;;;;7.31;100.00;99161.59;5000296;28;20351;-67
2021/12/28 08:00:57;;;;;;;9.98;3.03;;;;;;;7.30;100.00;99164.31;4996444;28;20497;-67
2021/12/28 08:03:24;;;;;;;10.63;3.00;;;;;;;7.30;100.00;99159.97;5010494;28;20112;-67
2021/12/28 08:05:50;;;;;;;9.98;2.85;;;;;;;7.33;100.00;99158.84;5010453;28;20423;-67
2021/12/28 08:08:16;;;;;;;8.73;3.30;;;;;;;7.34;100.00;99145.84;5010454;28;20134;-67
2021/12/28 08:10:41;;;;;;;8.23;2.83;;;;;;;7.35;100.00;99141.50;5009862;28;20112;-67
2021/12/28 08:13:07;;;;;;;8.20;3.05;;;;;;;7.35;100.00;99152.63;5010483;28;20041;-68
2021/12/28 08:15:33;;;;;;;7.95;3.42;;;;;;;7.37;100.00;99158.44;5002439;28;20030;-67
2021/12/28 08:17:58;;;;;;;10.52;4.00;;;;;;;7.37;100.00;99150.69;4991988;28;20069;-67
2021/12/28 08:20:24;;;;;;;10.35;3.88;;;;;;;7.40;100.00;99150.41;4996919;28;20029;-67
2021/12/28 08:22:49;;;;;;;11.20;3.60;;;;;;;7.42;100.00;99148.50;5002250;28;20034;-67
2021/12/28 08:25:18;;;;;;;10.65;4.30;;;;;;;7.44;100.00;99154.31;5003221;28;20037;-67
2021/12/28 08:27:43;;;;;;;;;;;;;;;7.52;100.00;99152.78;4999800;28;20030;-67
2021/12/28 08:30:11;;;;;;;9.32;4.68;;;;;;;7.48;100.00;99146.28;4997604;28;19921;-67
2021/12/28 08:32:37;;;;;;;8.77;5.03;;;;;;;7.50;100.00;99139.19;5002606;28;20038;-67
2021/12/28 08:35:03;;;;;;;12.77;5.40;;;;;;;7.52;100.00;99142.47;5005308;28;20052;-67
2021/12/28 08:37:29;;;;;;;9.73;5.35;;;;;;;7.51;100.00;99140.81;5011735;28;20168;-67
2021/12/28 08:39:55;;;;;;;12.00;5.85;;;;;;;7.51;100.00;99125.34;5005926;28;20564;-67
2021/12/28 08:42:21;;;;;;;9.13;5.80;;;;;;;7.56;100.00;99130.88;5008591;28;20479;-67
2021/12/28 08:44:47;;;;;;;11.13;6.55;;;;;;;7.56;100.00;99130.88;5010127;28;20029;-67
2021/12/28 08:47:12;;;;;;;11.02;6.38;;;;;;;7.60;100.00;99127.03;5013744;28;20024;-67
2021/12/28 08:49:37;;;;;;;11.18;7.00;;;;;;;7.61;100.00;99126.09;5013835;28;20021;-67
2021/12/28 08:52:03;;;;;;;12.30;7.20;;;;;;;7.59;100.00;99133.97;5013801;28;20111;-67
2021/12/28 08:54:29;;;;;;;11.43;6.90;;;;;;;7.61;100.00;99136.41;5013493;28;20369;-67
2021/12/28 08:56:54;;;;;;;10.73;6.95;;;;;;;7.64;100.00;99136.13;5013608;28;20549;-67
2021/12/28 08:59:19;;;;;;;13.77;7.75;;;;;;;7.63;100.00;99129.34;5013512;28;20041;-67
2021/12/28 09:01:48;;;;;;;11.20;7.97;;;;;;;7.67;100.00;99130.66;5013599;28;20026;-67
2021/12/28 09:04:13;;;;;;;10.23;8.50;;;;;;;7.67;100.00;99121.13;5013268;28;20406;-67
2021/12/28 09:06:39;;;;;;;12.18;9.40;;;;;;;7.72;100.00;99128.44;5013354;28;20053;-67
2021/12/28 09:09:04;;;;;;;12.15;9.10;;;;;;;7.74;100.00;99129.09;5008216;28;20026;-66
2021/12/28 09:11:29;;;;;;;12.60;9.52;;;;;;;7.76;100.00;99124.59;5012790;28;20030;-67
2021/12/28 09:13:55;;;;;;;13.52;10.55;;;;;;;7.78;100.00;99122.69;5013265;28;20128;-67
2021/12/28 09:16:20;;;;;;;12.27;10.65;;;;;;;7.79;100.00;99116.56;4995836;28;20033;-67
2021/12/28 09:18:45;;;;;;;12.40;10.40;;;;;;;7.82;100.00;99113.69;5012826;28;20037;-67
2021/12/28 09:21:11;;;;;;;11.85;10.60;;;;;;;7.83;100.00;99115.31;5013256;28;20619;-66
2021/12/28 09:23:38;;;;;;;12.48;11.10;;;;;;;7.85;100.00;99113.38;5005648;28;20035;-66
2021/12/28 09:26:04;;;;;;;13.38;10.35;;;;;;;7.88;100.00;99113.09;5005800;28;20022;-67
2021/12/28 09:28:29;;;;;;;13.18;10.85;;;;;;;7.89;100.00;99112.13;5003182;28;20454;-67
2021/12/28 09:30:55;;;;;;;12.55;11.18;;;;;;;7.91;100.00;99102.47;4999438;28;20102;-67
2021/12/28 09:33:20;;;;;;;14.85;11.98;;;;;;;7.94;100.00;99102.16;5005626;28;20496;-67
2021/12/28 09:35:46;;;;;;;14.13;12.75;;;;;;;7.96;100.00;99102.81;5004763;28;20026;-67
2021/12/28 09:38:11;;;;;;;13.55;12.15;;;;;;;8.01;100.00;99106.72;4988137;28;20029;-66
2021/12/28 09:40:37;;;;;;;13.82;12.52;;;;;;;7.98;100.00;99103.50;5005418;28;20033;-67
2021/12/28 09:43:06;;;;;;;12.55;11.25;;;;;;;8.04;100.00;99096.09;4980676;28;20036;-66
2021/12/28 09:45:33;;;;;;;12.77;11.40;;;;;;;8.06;100.00;99081.25;5003934;28;20042;-67
2021/12/28 09:47:58;;;;;;;13.38;11.57;;;;;;;8.10;100.00;99085.16;5012566;28;20022;-66
2021/12/28 09:50:24;;;;;;;12.25;10.95;;;;;;;8.09;100.00;99084.38;4994771;28;20068;-67
2021/12/28 09:52:50;;;;;;;11.57;10.35;;;;;;;8.14;100.00;99091.63;5012163;28;20063;-66
2021/12/28 09:55:20;;;;;;;11.18;10.05;;;;;;;8.16;100.00;99087.16;5012187;28;20029;-66
2021/12/28 09:57:45;;;;;;;11.25;10.15;;;;;;;8.15;100.00;99083.75;5012190;28;20458;-67
2021/12/28 10:00:12;;;;;;;10.68;9.68;;;;;;;8.19;100.00;99079.06;5012346;28;20124;-66
2021/12/28 10:02:37;;;;;;;10.55;9.45;;;;;;;8.20;100.00;99080.69;5009150;28;20022;-67
2021/12/28 10:05:07;;;;;;;10.80;9.73;;;;;;;8.21;100.00;99083.16;4996614;28;20029;-67
2021/12/28 10:07:36;;;;;;;10.70;9.07;;;;;;;8.25;100.00;99068.94;5002211;28;20088;-67
2021/12/28 10:10:04;;;;;;;10.30;9.30;;;;;;;8.27;100.00;99066.22;4998214;28;20105;-67
2021/12/28 10:12:41;;;;;;;9.55;8.55;;;;;;;8.31;100.00;99062.34;5007048;28;20026;-67
2021/12/28 10:15:16;;;;;;;9.23;8.32;;;;;;;8.34;100.00;99069.00;5011809;28;20037;-66
2021/12/28 10:17:43;;;;;;;10.65;8.35;;;;;;;8.35;100.00;99053.34;5006603;28;20466;-66
2021/12/28 10:20:49;;;;;;;8.88;7.70;;;;;;;8.41;100.00;99052.75;5011802;28;20044;-67
2021/12/28 10:23:17;;;;;;;9.02;7.63;;;;;;;8.42;100.00;99049.19;5000196;28;20588;-67
2021/12/28 10:25:49;;;;;;;12.07;10.00;;;;;;;8.43;100.00;99034.50;4993041;28;20049;-67
2021/12/28 10:28:19;;;;;;;9.63;6.70;;;;;;;8.45;100.00;99037.75;5008609;28;20505;-67
2021/12/28 10:30:46;;;;;;;7.90;6.68;;;;;;;8.48;100.00;99032.25;5001599;28;20044;-66
2021/12/28 10:33:15;;;;;;;8.00;6.28;;;;;;;8.46;100.00;99027.25;5006663;28;20041;-67
2021/12/28 10:35:58;;;;;;;7.43;6.07;;;;;;;8.52;100.00;99016.31;5006626;28;20030;-66
2021/12/28 10:38:30;;;;;;;7.85;6.32;;;;;;;8.52;100.00;99011.13;5010010;28;20030;-68
2021/12/28 10:40:58;;;;;;;7.50;5.53;;;;;;;8.50;100.00;99005.31;5009791;28;20033;-67
2021/12/28 10:43:33;;;;;;;9.05;5.53;;;;;;;8.57;100.00;99009.88;4993735;28;20117;-67
2021/12/28 10:46:01;;;;;;;7.80;5.30;;;;;;;8.58;100.00;99006.31;4993207;28;20080;-67
2021/12/28 10:48:32;;;;;;;8.85;5.50;;;;;;;8.60;100.00;99009.53;4991862;28;20382;-67
2021/12/28 10:51:02;;;;;;;5.90;4.57;;;;;;;8.60;100.00;99004.38;4993763;28;20451;-67
2021/12/28 10:53:38;;;;;;;5.22;4.15;;;;;;;8.62;100.00;99002.47;5010404;28;20038;-67
2021/12/28 10:56:08;;;;;;;5.80;3.92;;;;;;;8.65;100.00;99017.63;5011515;28;20473;-67
2021/12/28 10:58:44;;;;;;;5.45;3.90;;;;;;;8.64;100.00;99005.69;4993480;28;20069;-67
2021/12/28 11:01:32;;;;;;;4.72;3.67;;;;;;;8.70;99.99;99005.84;5010939;28;20041;-67
2021/12/28 11:04:03;;;;;;;5.40;3.58;;;;;;;8.69;100.00;99006.03;5003120;28;20533;-67
2021/12/28 11:06:33;;;;;;;7.93;3.90;;;;;;;8.69;100.00;98998.25;5000898;28;20058;-66
2021/12/28 11:09:01;;;;;;;7.10;4.85;;;;;;;8.70;100.00;98979.22;5003914;28;20028;-67
2021/12/28 11:11:26;;;;;;;7.95;4.75;;;;;;;8.69;100.00;98985.34;5009224;28;20036;-67
2021/12/28 11:13:58;;;;;;;7.93;3.67;;;;;;;8.69;100.00;98982.75;5011423;28;20021;-66
2021/12/28 11:16:26;;;;;;;5.55;3.25;;;;;;;8.68;100.00;98965.66;5010858;28;20124;-67
2021/12/28 11:19:03;;;;;;;6.70;4.00;;;;;;;8.68;100.00;98966.44;5009953;28;20473;-67
2021/12/28 11:21:39;;;;;;;6.82;4.00;;;;;;;8.69;100.00;98959.50;5007477;28;20076;-67
2021/12/28 11:24:07;;;;;;;5.88;3.40;;;;;;;8.69;100.00;98962.09;5007790;28;20036;-66
2021/12/28 11:26:37;;;;;;;6.40;3.60;;;;;;;8.70;100.00;98955.94;5010315;28;20025;-67
2021/12/28 11:29:27;;;;;;;5.20;3.53;;;;;;;8.69;100.00;98951.75;5009141;28;20021;-67